LROPLROD

Guest
Details From LROP - Bucarest Otopeni Intl
To LROD - ORADEA
Flight Number -
Tags generated
Created
Modified
Stats Distance 230 nm / 425 km
Max Altitude 28,100 ft / 8,565 m
Waypoints 4
Social Downloads 1
Likes 0
Share VATSIM

Download

Looking for another format? Having issues loading an existing format? Contact us
Advertisement - Login to hide

Notes

Basic altitude profile: - Ascent Rate: 2500ft/min - Ascent Speed: 250kts - Cruise Altitude: 35000ft - Cruise Speed: 420kts - Descent Rate: 1500ft/min - Descent Speed: 250kts Options: - Use NATs: no - Use PACOTS: no - Use low airways: no - Use high airways: yes

Route

LROP GAVRI UL622 ABEGO LROD

ID Type Via Altitude Latitude Longitude Leg Dist Tot Dist Heading (true) Name
O LROP APT - 0 ft / 0 m 44.57216˚ 26.10218˚ - 0 nm - Bucarest Otopeni Intl
GAVRI FIX - 28,100 ft / 8,565 m 45.62196˚ 24.32341˚ 98 nm 98 nm 311° / 309° -
ABEGO FIX UL622 (AWY-HI) 24,500 ft / 7,468 m 46.09519˚ 23.64316˚ 40 nm 138 nm 315° / 315° -
O LROD APT - 0 ft / 0 m 47.02532˚ 21.90241˚ 91 nm 229 nm 308° / 307° ORADEA

Altitude Profile

Advertisement - Login to hide

Weather


0- 5 10 15 20 25 30 35+ Temperature / ° C

Clouds and Precipitation
Forecast for 2018-05-22 00:00 UTC. Updated an hour ago

Ground ~20,000 ft ~40,000 ft Winds

LROP

Details ICAO LROP (OTP)
Name Bucarest Otopeni Intl
Region Romania
Timezone Europe/Bucharest (UTC+3.0)
Stats Elevation 314 ft / 96 m (AMSL)
Location 44.572161° 26.102177°
Runways 2
Magnetic Variation 5.652° E

METAR

LROP 220030Z 03006KT CAVOK 13/11 Q1019 NOSIG

Decode

TAF

TAF LROP 212300Z 2200/2224 VRB04KT CAVOK BECMG 2208/2210 09010KT BECMG 2219/2221 VRB04KT

Decode

Departure Runways

ID Width Length Bearing (true) Bearing (mag) Surface Threshold Offset Overrun Length
08L 148 ft / 45 m 11,457 ft / 3,492 m 83.91° 78.26° Asphalt 500 ft / 152 m 0 ft / 0 m
08R 148 ft / 45 m 11,455 ft / 3,491 m 83.89° 78.24° Asphalt 450 ft / 137 m 0 ft / 0 m
26L 148 ft / 45 m 11,455 ft / 3,491 m 263.92° 258.27° Asphalt 450 ft / 137 m 0 ft / 0 m
26R 148 ft / 45 m 11,457 ft / 3,492 m 263.94° 258.29° Asphalt 500 ft / 152 m 0 ft / 0 m

LROD

Details ICAO LROD (OMR)
Name ORADEA
Region Romania
Timezone Europe/Bucharest (UTC+3.0)
Stats Elevation 465 ft / 142 m (AMSL)
Location 47.025323° 21.902410°
Runways 1
Magnetic Variation 5.286° E

METAR

LROD 220030Z AUTO 11004KT 9999 SCT050 BKN065 15/14 Q1016

Decode

TAF

Not found

Destination Runways

ID Width Length Bearing (true) Bearing (mag) Surface Threshold Offset Overrun Length
01 98 ft / 30 m 5,862 ft / 1,787 m 11.12° 5.83° Concrete 0 ft / 0 m 0 ft / 0 m
19 98 ft / 30 m 5,862 ft / 1,787 m 191.13° 185.84° Concrete 0 ft / 0 m 0 ft / 0 m

Approach Navaids

Runway Type Ident Frequency Range Bearing (true) Bearing (mag) Slope Elevation
19 Localiser IOD 109.50 MHz 18 nm / 33 km 191.11° 185.83° - 450 ft / 137 m (AMSL)
19 Glidescope IOD 109.50 MHz 10 nm / 19 km 191.13° 185.84° 2.70° 450 ft / 137 m (AMSL)

Popular Alternatives